createdAt,value
2019-06-20T00:01:08.521Z,23.84
2019-06-20T00:03:42.514Z,23.83
2019-06-20T00:06:16.379Z,23.80
2019-06-20T00:08:50.559Z,23.80
2019-06-20T00:11:24.632Z,24.05
2019-06-20T00:13:58.865Z,24.41
2019-06-20T00:16:32.930Z,24.64
2019-06-20T00:19:07.315Z,24.80
2019-06-20T00:21:41.633Z,24.91
2019-06-20T00:24:15.756Z,24.99
2019-06-20T00:26:49.765Z,25.06
2019-06-20T00:29:23.718Z,25.12
2019-06-20T00:31:57.943Z,25.18
2019-06-20T00:34:32.285Z,25.23
2019-06-20T00:37:06.624Z,25.26
2019-06-20T00:39:40.825Z,25.29
2019-06-20T00:42:14.860Z,25.33
2019-06-20T00:44:48.923Z,25.36
2019-06-20T00:47:23.076Z,25.42
2019-06-20T00:49:57.206Z,25.46
2019-06-20T00:52:31.198Z,25.48
2019-06-20T00:55:05.367Z,25.52
2019-06-20T00:57:39.556Z,25.52
2019-06-20T01:00:15.419Z,25.52
2019-06-20T01:02:50.062Z,25.53
2019-06-20T01:05:24.838Z,25.54
2019-06-20T01:08:01.317Z,25.55
2019-06-20T01:10:36.037Z,25.58
2019-06-20T01:13:10.856Z,25.59
2019-06-20T01:15:46.120Z,25.61
2019-06-20T01:18:20.980Z,25.62
2019-06-20T01:20:55.876Z,25.64
2019-06-20T01:23:30.030Z,25.65
2019-06-20T01:26:04.227Z,25.66
2019-06-20T01:28:38.057Z,25.68
2019-06-20T01:31:12.367Z,25.69
2019-06-20T01:33:46.482Z,25.70
2019-06-20T01:36:20.638Z,25.73
2019-06-20T01:38:54.564Z,25.74
2019-06-20T01:41:28.809Z,25.76
2019-06-20T01:44:02.972Z,25.77
2019-06-20T01:46:37.230Z,25.77
2019-06-20T01:49:11.394Z,25.79
2019-06-20T01:51:45.501Z,25.80
2019-06-20T01:54:19.874Z,25.83
2019-06-20T01:56:53.887Z,25.84
2019-06-20T01:59:28.021Z,25.84
2019-06-20T02:02:02.047Z,25.86
2019-06-20T02:04:36.328Z,25.88
2019-06-20T02:07:10.607Z,25.88
2019-06-20T02:09:44.685Z,25.92
2019-06-20T02:12:18.961Z,25.92
2019-06-20T02:14:53.160Z,25.92
2019-06-20T02:17:27.176Z,25.92
2019-06-20T02:20:01.368Z,25.93
2019-06-20T02:22:36.387Z,25.94
2019-06-20T02:25:11.036Z,25.95
2019-06-20T02:27:44.979Z,25.95
2019-06-20T02:30:19.118Z,25.96
2019-06-20T02:32:52.995Z,25.97
2019-06-20T02:35:28.478Z,25.99
2019-06-20T02:38:02.455Z,26.02
2019-06-20T02:40:36.906Z,26.02
2019-06-20T02:43:11.104Z,26.03
2019-06-20T02:45:45.466Z,26.05
2019-06-20T02:48:19.701Z,26.06
2019-06-20T02:50:53.933Z,26.05
2019-06-20T02:53:27.913Z,26.06
2019-06-20T02:56:01.988Z,26.07
2019-06-20T02:58:35.987Z,26.06
2019-06-20T03:01:10.177Z,26.08
2019-06-20T03:03:44.287Z,26.08
2019-06-20T03:06:18.449Z,26.10
2019-06-20T03:08:52.717Z,26.10
2019-06-20T03:11:26.880Z,26.10
2019-06-20T03:14:00.847Z,26.15
2019-06-20T03:16:35.670Z,26.18
2019-06-20T03:19:09.977Z,26.20
2019-06-20T03:21:44.138Z,26.20
2019-06-20T03:24:18.506Z,26.18
2019-06-20T03:26:52.826Z,26.19
2019-06-20T03:29:27.023Z,26.18
2019-06-20T03:32:01.282Z,26.20
2019-06-20T03:34:35.234Z,26.22
2019-06-20T03:37:09.198Z,26.20
2019-06-20T03:39:43.171Z,26.24
2019-06-20T03:42:17.212Z,26.23
2019-06-20T03:45:01.652Z,26.22
2019-06-20T03:47:26.969Z,26.27
2019-06-20T03:50:01.095Z,26.38
2019-06-20T03:52:35.294Z,26.41
2019-06-20T03:55:09.775Z,26.45
2019-06-20T03:57:43.816Z,26.46
2019-06-20T04:00:18.163Z,26.44
2019-06-20T04:02:52.410Z,26.42
2019-06-20T04:05:26.693Z,26.40
2019-06-20T04:08:00.771Z,26.39
2019-06-20T04:10:34.858Z,26.38
2019-06-20T04:13:09.022Z,26.40
2019-06-20T04:15:43.049Z,26.43
2019-06-20T04:18:17.024Z,26.44
2019-06-20T04:20:51.101Z,26.46
2019-06-20T04:23:25.361Z,26.47
2019-06-20T04:25:59.544Z,26.52
2019-06-20T04:28:33.567Z,26.53
2019-06-20T04:31:07.686Z,26.56
2019-06-20T04:33:42.731Z,26.56
2019-06-20T04:36:16.985Z,26.59
2019-06-20T04:38:51.196Z,26.57
2019-06-20T04:41:25.614Z,26.58
2019-06-20T04:43:59.649Z,26.57
2019-06-20T04:46:46.196Z,26.57
2019-06-20T04:49:20.655Z,26.60
2019-06-20T04:51:54.802Z,26.60
2019-06-20T04:54:28.846Z,26.60
2019-06-20T04:57:03.052Z,26.62
2019-06-20T04:59:37.022Z,26.64
2019-06-20T05:02:14.782Z,26.70
2019-06-20T05:04:47.123Z,26.80
2019-06-20T05:07:22.345Z,26.82
2019-06-20T05:09:56.244Z,26.81
2019-06-20T05:12:30.290Z,26.80
2019-06-20T05:15:04.299Z,26.79
2019-06-20T05:17:38.341Z,26.76
2019-06-20T05:20:12.574Z,26.76
2019-06-20T05:22:46.728Z,26.76
2019-06-20T05:25:21.108Z,26.77
2019-06-20T05:27:55.296Z,26.78
2019-06-20T05:30:29.316Z,26.79
2019-06-20T05:33:03.454Z,26.80
2019-06-20T05:35:38.728Z,26.81
2019-06-20T05:38:13.480Z,26.81
2019-06-20T05:40:47.499Z,26.82
2019-06-20T05:43:27.475Z,26.84
2019-06-20T05:46:09.736Z,26.84
2019-06-20T05:48:37.429Z,26.86
2019-06-20T05:51:11.780Z,26.85
2019-06-20T05:53:46.942Z,26.83
2019-06-20T05:56:21.505Z,26.83
2019-06-20T05:58:55.618Z,26.84
2019-06-20T06:01:29.830Z,26.84
2019-06-20T06:04:04.939Z,26.86
2019-06-20T06:06:39.073Z,26.87
2019-06-20T06:09:14.171Z,26.88
2019-06-20T06:11:48.322Z,26.91
2019-06-20T06:14:22.558Z,26.92
2019-06-20T06:16:56.610Z,26.96
2019-06-20T06:19:30.607Z,26.97
2019-06-20T06:22:07.578Z,26.99
2019-06-20T06:24:41.966Z,27.01
2019-06-20T06:27:16.079Z,27.03
2019-06-20T06:29:50.730Z,27.07
2019-06-20T06:32:39.167Z,27.05
2019-06-20T06:35:01.873Z,27.01
2019-06-20T06:37:37.525Z,26.99
2019-06-20T06:40:12.316Z,26.99
2019-06-20T06:42:47.236Z,26.99
2019-06-20T06:45:24.908Z,26.99
2019-06-20T06:47:59.867Z,26.99
2019-06-20T06:50:35.583Z,27.00
2019-06-20T06:53:09.588Z,27.02
2019-06-20T06:55:43.800Z,27.02
2019-06-20T06:58:18.005Z,27.01
2019-06-20T07:00:52.435Z,27.03
2019-06-20T07:03:27.509Z,27.03
2019-06-20T07:06:03.940Z,27.03
2019-06-20T07:08:38.310Z,27.05
2019-06-20T07:11:13.611Z,27.05
2019-06-20T07:13:49.528Z,27.06
2019-06-20T07:16:25.425Z,27.07
2019-06-20T07:18:59.589Z,27.08
2019-06-20T07:21:36.003Z,27.09
2019-06-20T07:24:15.533Z,27.10
2019-06-20T07:26:53.826Z,27.11
2019-06-20T07:29:32.923Z,27.12
2019-06-20T07:32:12.977Z,27.12
2019-06-20T07:34:51.405Z,27.12
2019-06-20T07:37:27.887Z,27.13
2019-06-20T07:40:02.068Z,27.13
2019-06-20T07:42:39.517Z,27.14
2019-06-20T07:45:14.475Z,27.16
2019-06-20T07:47:52.249Z,27.16
2019-06-20T07:50:29.766Z,27.17
2019-06-20T07:53:04.880Z,27.18
2019-06-20T07:55:46.970Z,27.20
2019-06-20T07:58:22.657Z,27.20
2019-06-20T08:00:57.295Z,27.21
2019-06-20T08:03:31.437Z,27.22
2019-06-20T08:06:06.393Z,27.22
2019-06-20T08:08:42.140Z,27.25
2019-06-20T08:11:19.109Z,27.25
2019-06-20T08:13:54.757Z,27.26
2019-06-20T08:16:29.188Z,27.26
2019-06-20T08:19:04.330Z,27.27
2019-06-20T08:21:39.310Z,27.28
2019-06-20T08:24:20.412Z,27.30
2019-06-20T08:26:56.757Z,27.30
2019-06-20T08:29:33.820Z,27.31
2019-06-20T08:32:07.830Z,27.32
2019-06-20T08:34:41.644Z,27.34
2019-06-20T08:37:18.710Z,27.34
2019-06-20T08:39:53.509Z,27.34
2019-06-20T08:42:27.829Z,27.36
2019-06-20T08:45:01.923Z,27.36
2019-06-20T08:47:36.119Z,27.54
2019-06-20T08:50:10.737Z,27.33
2019-06-20T08:52:44.923Z,26.76
2019-06-20T08:55:20.118Z,26.36
2019-06-20T08:57:55.632Z,26.03
2019-06-20T09:00:30.938Z,25.80
2019-06-20T09:03:05.309Z,25.66
2019-06-20T09:05:39.708Z,25.51
2019-06-20T09:08:14.509Z,25.39
2019-06-20T09:10:48.743Z,25.30
2019-06-20T09:13:23.046Z,25.21
2019-06-20T09:15:57.149Z,25.11
2019-06-20T09:18:32.454Z,25.07
2019-06-20T09:21:06.505Z,25.00
2019-06-20T09:23:40.683Z,24.95
2019-06-20T09:26:15.039Z,24.91
2019-06-20T09:28:51.038Z,24.88
2019-06-20T09:31:25.932Z,24.78
2019-06-20T09:34:04.884Z,24.77
2019-06-20T09:36:38.193Z,24.70
2019-06-20T09:39:12.327Z,24.70
2019-06-20T09:41:47.407Z,24.69
2019-06-20T09:44:21.735Z,24.65
2019-06-20T09:46:56.447Z,24.67
2019-06-20T09:49:31.093Z,24.61
2019-06-20T09:52:06.817Z,24.61
2019-06-20T09:54:41.227Z,24.75
2019-06-20T09:57:15.582Z,24.72
2019-06-20T10:00:03.255Z,24.71
2019-06-20T10:02:27.354Z,24.72
2019-06-20T10:05:02.353Z,24.72
2019-06-20T10:07:37.981Z,24.82
2019-06-20T10:10:12.540Z,24.86
2019-06-20T10:12:48.039Z,24.93
2019-06-20T10:15:28.502Z,24.95
2019-06-20T10:18:02.796Z,24.93
2019-06-20T10:20:39.722Z,24.96
2019-06-20T10:23:15.368Z,24.99
2019-06-20T10:25:51.514Z,25.01
2019-06-20T10:28:27.214Z,25.04
2019-06-20T10:31:01.295Z,25.01
2019-06-20T10:33:35.236Z,25.02
2019-06-20T10:36:09.620Z,25.07
2019-06-20T10:38:45.335Z,25.08
2019-06-20T10:41:19.548Z,25.13
2019-06-20T10:43:54.118Z,25.14
2019-06-20T10:46:28.451Z,25.16
2019-06-20T10:49:03.922Z,25.18
2019-06-20T10:51:56.551Z,25.20
2019-06-20T10:54:31.463Z,25.21
2019-06-20T10:57:05.775Z,25.21
2019-06-20T10:59:44.259Z,25.21
2019-06-20T11:02:21.600Z,25.22
2019-06-20T11:05:00.370Z,25.23
2019-06-20T11:07:34.536Z,25.25
2019-06-20T11:10:11.319Z,25.22
2019-06-20T11:12:52.407Z,25.23
2019-06-20T11:15:28.424Z,25.26
2019-06-20T11:18:03.867Z,25.28
2019-06-20T11:20:39.501Z,25.28
2019-06-20T11:23:15.804Z,25.30
2019-06-20T11:25:50.095Z,25.27
2019-06-20T11:28:24.202Z,25.29
2019-06-20T11:31:00.623Z,25.29
2019-06-20T11:33:36.587Z,25.29
2019-06-20T11:36:11.271Z,25.32
2019-06-20T11:38:45.774Z,25.33
2019-06-20T11:41:21.195Z,25.30
2019-06-20T11:43:55.182Z,25.30
2019-06-20T11:46:30.546Z,25.28
2019-06-20T11:49:04.469Z,25.30
2019-06-20T11:51:39.859Z,25.32
2019-06-20T11:54:14.295Z,25.33
2019-06-20T11:56:48.293Z,25.31
2019-06-20T11:59:22.472Z,25.29
2019-06-20T12:01:56.333Z,25.30
2019-06-20T12:04:31.247Z,25.32
2019-06-20T12:07:06.237Z,25.32
2019-06-20T12:09:40.939Z,25.29
2019-06-20T12:12:15.284Z,25.36
2019-06-20T12:14:49.813Z,25.35
2019-06-20T12:17:24.168Z,25.35
2019-06-20T12:19:58.279Z,25.35
2019-06-20T12:22:32.518Z,25.35
2019-06-20T12:25:06.711Z,25.39
2019-06-20T12:27:42.951Z,25.38
2019-06-20T12:30:19.603Z,25.33
2019-06-20T12:32:53.758Z,25.35
2019-06-20T12:35:28.292Z,25.35
2019-06-20T12:38:02.345Z,25.36
2019-06-20T12:40:39.080Z,25.39
2019-06-20T12:43:12.560Z,25.38
2019-06-20T12:45:47.419Z,25.35
2019-06-20T12:48:21.687Z,25.34
2019-06-20T12:50:55.893Z,25.40
2019-06-20T12:53:30.292Z,25.33
2019-06-20T12:56:04.334Z,25.28
2019-06-20T12:58:39.460Z,25.33
2019-06-20T13:01:14.531Z,25.24
2019-06-20T13:03:50.474Z,25.49
2019-06-20T13:06:24.735Z,25.50
2019-06-20T13:08:58.979Z,25.28
2019-06-20T13:11:33.275Z,25.20
2019-06-20T13:14:07.877Z,25.21
2019-06-20T13:16:42.783Z,25.25
2019-06-20T13:19:17.270Z,25.26
2019-06-20T13:22:06.910Z,25.25
2019-06-20T13:24:41.059Z,25.22
2019-06-20T13:27:15.047Z,25.20
2019-06-20T13:29:49.508Z,25.23
2019-06-20T13:32:23.693Z,25.22
2019-06-20T13:34:58.025Z,25.85
2019-06-20T13:37:32.188Z,26.05
2019-06-20T13:40:07.377Z,26.14
2019-06-20T13:42:43.649Z,26.24
2019-06-20T13:45:25.219Z,26.32
2019-06-20T13:47:59.280Z,26.40
2019-06-20T13:50:33.322Z,26.48
2019-06-20T13:53:07.583Z,26.54
2019-06-20T13:55:42.876Z,26.60
2019-06-20T13:58:18.096Z,26.65
2019-06-20T14:00:52.822Z,26.69
2019-06-20T14:03:26.917Z,26.74
2019-06-20T14:06:00.997Z,26.80
2019-06-20T14:08:35.341Z,26.83
2019-06-20T14:11:09.440Z,26.87
2019-06-20T14:13:46.799Z,26.92
2019-06-20T14:16:19.949Z,26.95
2019-06-20T14:18:57.047Z,26.98
2019-06-20T14:21:31.234Z,27.01
2019-06-20T14:24:05.145Z,27.05
2019-06-20T14:26:39.308Z,27.45
2019-06-20T14:29:13.489Z,27.60
2019-06-20T14:31:47.680Z,27.68
2019-06-20T14:34:21.646Z,27.73
2019-06-20T14:36:57.886Z,27.81
2019-06-20T14:39:34.262Z,27.84
2019-06-20T14:42:09.444Z,27.89
2019-06-20T14:44:44.641Z,27.96
2019-06-20T14:47:20.993Z,27.99
2019-06-20T14:49:55.429Z,28.01
2019-06-20T14:52:29.691Z,28.04
2019-06-20T14:55:04.024Z,28.08
2019-06-20T14:57:38.279Z,28.12
2019-06-20T15:00:13.270Z,28.15
2019-06-20T15:02:48.002Z,28.18
2019-06-20T15:05:23.331Z,28.24
2019-06-20T15:07:57.807Z,28.25
2019-06-20T15:10:32.020Z,28.27
2019-06-20T15:13:07.180Z,28.29
2019-06-20T15:15:41.455Z,28.29
2019-06-20T15:18:15.589Z,28.35
2019-06-20T15:20:50.241Z,28.38
2019-06-20T15:23:25.922Z,28.42
2019-06-20T15:26:00.142Z,28.44
2019-06-20T15:28:34.427Z,28.44
2019-06-20T15:31:08.792Z,28.51
2019-06-20T15:33:43.984Z,28.51
2019-06-20T15:36:18.175Z,28.51
2019-06-20T15:38:53.059Z,28.55
2019-06-20T15:41:27.579Z,28.53
2019-06-20T15:44:01.876Z,28.60
2019-06-20T15:46:35.944Z,27.92
2019-06-20T15:49:16.155Z,27.92
2019-06-20T15:51:46.341Z,26.94
2019-06-20T15:54:23.670Z,26.15
2019-06-20T15:56:56.522Z,25.72
2019-06-20T15:59:30.743Z,25.35
2019-06-20T16:02:05.040Z,25.03
2019-06-20T16:04:39.229Z,24.90
2019-06-20T16:07:15.034Z,24.88
2019-06-20T16:09:49.202Z,24.85
2019-06-20T16:12:23.360Z,24.78
2019-06-20T16:14:57.827Z,24.78
2019-06-20T16:17:31.905Z,24.91
2019-06-20T16:20:06.378Z,24.99
2019-06-20T16:22:40.798Z,24.73
2019-06-20T16:25:15.447Z,24.55
2019-06-20T16:27:49.747Z,24.51
2019-06-20T16:30:25.450Z,24.52
2019-06-20T16:33:00.125Z,24.51
2019-06-20T16:35:34.417Z,24.51
2019-06-20T16:38:08.653Z,24.53
2019-06-20T16:40:50.236Z,24.73
2019-06-20T16:43:24.368Z,24.64
2019-06-20T16:45:58.513Z,24.40
2019-06-20T16:48:32.913Z,24.34
2019-06-20T16:51:06.872Z,24.39
2019-06-20T16:53:41.087Z,24.39
2019-06-20T16:56:15.256Z,24.51
2019-06-20T16:58:49.499Z,24.50
2019-06-20T17:01:23.393Z,24.55
2019-06-20T17:03:57.562Z,24.84
2019-06-20T17:06:31.732Z,24.58
2019-06-20T17:09:08.415Z,24.37
2019-06-20T17:11:43.801Z,24.35
2019-06-20T17:14:17.812Z,24.37
2019-06-20T17:16:53.210Z,24.36
2019-06-20T17:19:27.391Z,24.33
2019-06-20T17:22:01.368Z,24.30
2019-06-20T17:24:35.323Z,24.39
2019-06-20T17:27:09.599Z,24.50
2019-06-20T17:29:43.708Z,24.21
2019-06-20T17:32:17.851Z,24.07
2019-06-20T17:34:52.040Z,24.05
2019-06-20T17:37:26.042Z,24.08
2019-06-20T17:39:59.940Z,24.07
2019-06-20T17:42:34.800Z,24.18
2019-06-20T17:45:09.595Z,24.15
2019-06-20T17:47:43.650Z,24.34
2019-06-20T17:50:19.380Z,24.25
2019-06-20T17:52:53.238Z,23.97
2019-06-20T17:55:28.181Z,23.94
2019-06-20T17:58:02.387Z,24.00
2019-06-20T18:00:37.151Z,24.01
2019-06-20T18:03:11.254Z,24.02
2019-06-20T18:05:45.307Z,24.04
2019-06-20T18:08:19.516Z,24.04
2019-06-20T18:10:53.812Z,24.31
2019-06-20T18:13:27.993Z,24.07
2019-06-20T18:16:02.171Z,23.85
2019-06-20T18:18:36.131Z,23.84
2019-06-20T18:21:10.424Z,23.90
2019-06-20T18:23:44.876Z,23.91
2019-06-20T18:26:19.271Z,23.93
2019-06-20T18:28:53.593Z,23.93
2019-06-20T18:31:27.697Z,24.02
2019-06-20T18:34:02.102Z,24.21
2019-06-20T18:36:36.287Z,23.85
2019-06-20T18:39:11.457Z,23.66
2019-06-20T18:41:47.520Z,23.65
2019-06-20T18:44:21.821Z,23.69
2019-06-20T18:46:55.941Z,23.73
2019-06-20T18:49:30.007Z,23.75
2019-06-20T18:52:04.273Z,23.78
2019-06-20T18:54:38.358Z,24.02
2019-06-20T18:57:12.532Z,24.02
2019-06-20T18:59:46.801Z,23.89
2019-06-20T19:02:21.089Z,23.83
2019-06-20T19:04:54.993Z,23.81
2019-06-20T19:07:29.071Z,23.77
2019-06-20T19:10:03.447Z,23.72
2019-06-20T19:12:37.455Z,23.70
2019-06-20T19:15:11.744Z,23.65
2019-06-20T19:17:45.681Z,23.93
2019-06-20T19:20:20.172Z,23.79
2019-06-20T19:22:54.387Z,23.65
2019-06-20T19:25:28.550Z,23.62
2019-06-20T19:28:02.473Z,23.58
2019-06-20T19:30:50.545Z,23.57
2019-06-20T19:33:24.713Z,23.60
2019-06-20T19:35:59.183Z,23.64
2019-06-20T19:38:33.422Z,23.81
2019-06-20T19:41:07.734Z,24.14
2019-06-20T19:43:42.011Z,23.97
2019-06-20T19:46:16.170Z,23.96
2019-06-20T19:48:50.239Z,23.96
2019-06-20T19:51:25.394Z,24.01
2019-06-20T19:54:00.683Z,24.04
2019-06-20T19:56:34.645Z,24.03
2019-06-20T19:59:09.022Z,24.05
2019-06-20T20:01:43.281Z,24.23
2019-06-20T20:04:17.267Z,24.31
2019-06-20T20:06:51.327Z,24.12
2019-06-20T20:09:25.562Z,24.02
2019-06-20T20:11:59.720Z,23.91
2019-06-20T20:14:33.607Z,23.88
2019-06-20T20:17:07.881Z,23.89
2019-06-20T20:19:42.030Z,23.90
2019-06-20T20:22:16.195Z,23.91
2019-06-20T20:24:50.306Z,24.21
2019-06-20T20:27:24.502Z,24.09
2019-06-20T20:29:58.505Z,23.86
2019-06-20T20:32:32.594Z,23.67
2019-06-20T20:35:07.194Z,23.69
2019-06-20T20:37:41.382Z,23.75
2019-06-20T20:40:15.722Z,23.79
2019-06-20T20:42:49.764Z,23.81
2019-06-20T20:45:24.381Z,23.90
2019-06-20T20:47:58.770Z,24.18
2019-06-20T20:50:33.045Z,24.00
2019-06-20T20:53:07.245Z,23.90
2019-06-20T20:55:41.660Z,23.86
2019-06-20T20:58:15.749Z,23.84
2019-06-20T21:01:05.922Z,23.84
2019-06-20T21:03:40.163Z,23.70
2019-06-20T21:06:14.492Z,23.72
2019-06-20T21:08:48.451Z,23.99
2019-06-20T21:11:22.465Z,24.17
2019-06-20T21:13:56.723Z,23.86
2019-06-20T21:16:31.316Z,23.79
2019-06-20T21:19:05.664Z,23.77
2019-06-20T21:21:39.969Z,23.77
2019-06-20T21:24:14.203Z,23.78
2019-06-20T21:26:50.065Z,23.74
2019-06-20T21:29:25.213Z,23.71
2019-06-20T21:31:59.511Z,23.99
2019-06-20T21:34:33.794Z,23.78
2019-06-20T21:37:07.884Z,23.65
2019-06-20T21:39:42.020Z,23.60
2019-06-20T21:42:16.047Z,23.62
2019-06-20T21:44:50.198Z,23.62
2019-06-20T21:47:24.317Z,23.63
2019-06-20T21:49:58.495Z,23.63
2019-06-20T21:52:32.306Z,23.67
2019-06-20T21:55:06.464Z,23.97
2019-06-20T21:57:40.485Z,23.80
2019-06-20T22:00:17.818Z,23.72
2019-06-20T22:02:53.488Z,23.70
2019-06-20T22:05:27.465Z,23.62
2019-06-20T22:08:01.588Z,23.65
2019-06-20T22:10:36.125Z,23.66
2019-06-20T22:13:10.214Z,23.67
2019-06-20T22:15:44.469Z,23.85
2019-06-20T22:18:18.695Z,24.01
2019-06-20T22:20:52.665Z,23.81
2019-06-20T22:23:27.904Z,23.73
2019-06-20T22:26:02.037Z,23.71
2019-06-20T22:28:36.244Z,23.70
2019-06-20T22:31:10.501Z,23.69
2019-06-20T22:33:44.659Z,23.67
2019-06-20T22:36:19.051Z,23.63
2019-06-20T22:38:53.431Z,23.87
2019-06-20T22:41:27.865Z,23.88
2019-06-20T22:44:02.075Z,23.71
2019-06-20T22:46:36.281Z,23.68
2019-06-20T22:49:10.416Z,23.68
2019-06-20T22:51:44.624Z,23.69
2019-06-20T22:54:18.762Z,23.69
2019-06-20T22:56:53.148Z,23.69
2019-06-20T22:59:27.271Z,23.73
2019-06-20T23:02:01.484Z,24.02
2019-06-20T23:04:35.828Z,23.81
2019-06-20T23:07:09.938Z,23.71
2019-06-20T23:09:44.051Z,23.69
2019-06-20T23:12:18.259Z,23.68
2019-06-20T23:14:52.328Z,23.67
2019-06-20T23:17:26.426Z,23.67
2019-06-20T23:20:00.632Z,23.67
2019-06-20T23:22:35.225Z,23.79
2019-06-20T23:25:09.950Z,24.02
2019-06-20T23:27:44.203Z,23.81
2019-06-20T23:30:19.330Z,23.70
2019-06-20T23:32:53.661Z,23.66
2019-06-20T23:35:27.775Z,23.57
2019-06-20T23:38:04.497Z,23.60
2019-06-20T23:40:37.730Z,23.58
2019-06-20T23:43:12.114Z,23.58
2019-06-20T23:45:46.302Z,23.78
2019-06-20T23:48:20.589Z,23.84
2019-06-20T23:50:54.496Z,23.69
2019-06-20T23:53:29.158Z,23.62
2019-06-20T23:56:07.854Z,23.62
2019-06-20T23:58:40.173Z,23.61
